createdAt,value
2023-04-23T00:00:15.691Z,609.78
2023-04-23T00:02:49.862Z,578.10
2023-04-23T00:05:18.825Z,577.80
2023-04-23T00:07:48.059Z,574.75
2023-04-23T00:10:16.729Z,579.55
2023-04-23T00:12:45.752Z,583.17
2023-04-23T00:15:15.409Z,548.55
2023-04-23T00:17:46.244Z,563.42
2023-04-23T00:20:16.316Z,615.08
2023-04-23T00:22:44.844Z,628.33
2023-04-23T00:25:13.363Z,650.65
2023-04-23T00:27:41.882Z,698.92
2023-04-23T00:30:10.759Z,631.58
2023-04-23T00:32:39.278Z,616.50
2023-04-23T00:35:08.537Z,646.35
2023-04-23T00:37:38.246Z,638.63
2023-04-23T00:40:08.014Z,637.67
2023-04-23T00:42:36.562Z,651.70
2023-04-23T00:45:05.847Z,652.55
2023-04-23T00:47:34.685Z,655.17
2023-04-23T00:50:03.163Z,661.17
2023-04-23T00:52:31.701Z,662.65
2023-04-23T00:55:01.330Z,644.58
2023-04-23T00:57:29.799Z,654.28
2023-04-23T00:59:58.461Z,627.47
2023-04-23T01:02:28.068Z,678.08
2023-04-23T01:04:57.534Z,668.45
2023-04-23T01:07:26.170Z,647.72
2023-04-23T01:09:54.558Z,673.80
2023-04-23T01:12:25.135Z,639.22
2023-04-23T01:14:54.188Z,692.53
2023-04-23T01:17:22.975Z,638.92
2023-04-23T01:19:51.556Z,645.08
2023-04-23T01:22:21.557Z,654.72
2023-04-23T01:24:50.048Z,650.60
2023-04-23T01:27:20.076Z,668.70
2023-04-23T01:29:49.215Z,650.40
2023-04-23T01:32:17.927Z,689.92
2023-04-23T01:34:47.999Z,678.25
2023-04-23T01:37:17.294Z,672.15
2023-04-23T01:39:47.014Z,679.00
2023-04-23T01:42:15.853Z,684.85
2023-04-23T01:44:44.324Z,678.15
2023-04-23T01:47:12.902Z,654.67
2023-04-23T01:49:41.256Z,663.35
2023-04-23T01:52:09.595Z,661.00
2023-04-23T01:54:38.154Z,660.97
2023-04-23T01:57:08.071Z,654.63
2023-04-23T01:59:36.476Z,663.58
2023-04-23T02:02:05.085Z,664.33
2023-04-23T02:04:33.720Z,671.65
2023-04-23T02:07:02.137Z,666.05
2023-04-23T02:09:30.597Z,649.45
2023-04-23T02:11:58.909Z,684.63
2023-04-23T02:14:28.726Z,654.75
2023-04-23T02:16:57.733Z,670.75
2023-04-23T02:19:26.216Z,668.65
2023-04-23T02:21:54.563Z,677.75
2023-04-23T02:24:22.889Z,664.78
2023-04-23T02:26:51.196Z,668.17
2023-04-23T02:29:19.480Z,666.75
2023-04-23T02:31:49.284Z,651.72
2023-04-23T02:34:17.636Z,637.88
2023-04-23T02:36:46.081Z,656.92
2023-04-23T02:39:14.428Z,690.00
2023-04-23T02:41:42.758Z,649.35
2023-04-23T02:44:11.083Z,655.03
2023-04-23T02:46:40.198Z,648.10
2023-04-23T02:49:10.081Z,674.10
2023-04-23T02:51:38.419Z,660.97
2023-04-23T02:54:07.071Z,658.08
2023-04-23T02:56:35.554Z,632.30
2023-04-23T02:59:03.922Z,618.72
2023-04-23T03:01:32.289Z,630.88
2023-04-23T03:04:01.299Z,654.08
2023-04-23T03:06:31.858Z,657.15
2023-04-23T03:09:00.276Z,632.92
2023-04-23T03:11:28.629Z,645.88
2023-04-23T03:13:56.969Z,636.95
2023-04-23T03:16:25.757Z,665.75
2023-04-23T03:18:54.109Z,633.75
2023-04-23T03:21:22.473Z,662.50
2023-04-23T03:23:52.303Z,651.05
2023-04-23T03:26:20.714Z,629.33
2023-04-23T03:28:49.089Z,645.42
2023-04-23T03:31:17.483Z,661.10
2023-04-23T03:33:45.873Z,652.10
2023-04-23T03:36:15.579Z,653.13
2023-04-23T03:38:44.006Z,640.40
2023-04-23T03:41:13.683Z,655.75
2023-04-23T03:43:42.020Z,647.20
2023-04-23T03:46:10.413Z,636.85
2023-04-23T03:48:38.938Z,639.53
2023-04-23T03:51:07.245Z,631.63
2023-04-23T03:53:35.831Z,647.92
2023-04-23T03:56:04.232Z,646.97
2023-04-23T03:58:33.917Z,644.53
2023-04-23T04:01:02.216Z,679.88
2023-04-23T04:03:30.727Z,663.00
2023-04-23T04:05:59.193Z,654.08
2023-04-23T04:08:27.781Z,654.33
2023-04-23T04:10:56.329Z,659.15
2023-04-23T04:13:24.649Z,642.10
2023-04-23T04:15:54.348Z,625.30
2023-04-23T04:18:22.704Z,663.65
2023-04-23T04:20:52.240Z,632.22
2023-04-23T04:23:20.593Z,653.08
2023-04-23T04:25:50.964Z,646.08
2023-04-23T04:28:19.262Z,646.53
2023-04-23T04:30:50.106Z,655.25
2023-04-23T04:33:20.383Z,643.67
2023-04-23T04:35:49.617Z,638.65
2023-04-23T04:38:18.397Z,686.35
2023-04-23T04:40:46.722Z,634.58
2023-04-23T04:43:16.598Z,643.55
2023-04-23T04:45:44.933Z,672.35
2023-04-23T04:48:13.424Z,694.42
2023-04-23T04:50:43.184Z,655.20
2023-04-23T04:53:11.727Z,669.33
2023-04-23T04:55:40.133Z,650.47
2023-04-23T04:58:08.552Z,698.35
2023-04-23T05:00:36.999Z,671.88
2023-04-23T05:03:06.184Z,664.58
2023-04-23T05:05:35.059Z,679.22
2023-04-23T05:08:04.756Z,678.50
2023-04-23T05:10:33.224Z,653.97
2023-04-23T05:13:02.238Z,694.88
2023-04-23T05:15:30.685Z,721.67
2023-04-23T05:17:59.136Z,677.63
2023-04-23T05:20:28.370Z,670.85
2023-04-23T05:22:56.834Z,684.58
2023-04-23T05:25:26.826Z,695.78
2023-04-23T05:27:55.172Z,704.90
2023-04-23T05:30:23.695Z,685.90
2023-04-23T05:32:52.237Z,708.13
2023-04-23T05:35:21.056Z,720.25
2023-04-23T05:37:49.444Z,718.13
2023-04-23T05:40:17.798Z,714.33
2023-04-23T05:42:47.530Z,621.65
2023-04-23T05:45:16.070Z,617.83
2023-04-23T05:47:44.475Z,661.60
2023-04-23T05:50:15.955Z,687.90
2023-04-23T05:52:44.554Z,705.90
2023-04-23T05:55:15.543Z,717.30
2023-04-23T05:57:44.049Z,720.35
2023-04-23T06:00:14.580Z,721.70
2023-04-23T06:02:43.372Z,794.90
2023-04-23T06:05:12.326Z,744.30
2023-04-23T06:07:41.348Z,721.90
2023-04-23T06:10:10.913Z,704.95
2023-04-23T06:12:39.855Z,726.22
2023-04-23T06:15:09.652Z,708.30
2023-04-23T06:17:39.789Z,703.05
2023-04-23T06:20:11.881Z,696.13
2023-04-23T06:22:40.515Z,686.22
2023-04-23T06:25:09.828Z,702.88
2023-04-23T06:27:38.173Z,683.25
2023-04-23T06:30:08.008Z,692.60
2023-04-23T06:32:37.814Z,800.40
2023-04-23T06:35:07.781Z,682.33
2023-04-23T06:37:36.737Z,667.55
2023-04-23T06:40:05.561Z,646.88
2023-04-23T06:42:33.880Z,672.15
2023-04-23T06:45:06.263Z,653.30
2023-04-23T06:47:35.078Z,658.20
2023-04-23T06:50:05.801Z,647.97
2023-04-23T06:52:34.163Z,621.30
2023-04-23T06:55:02.690Z,660.10
2023-04-23T06:57:31.258Z,620.10
2023-04-23T06:59:59.626Z,626.03
2023-04-23T07:02:28.137Z,619.08
2023-04-23T07:04:59.657Z,627.50
2023-04-23T07:07:48.239Z,600.90
2023-04-23T07:10:18.165Z,611.03
2023-04-23T07:12:47.124Z,586.25
2023-04-23T07:15:15.906Z,597.33
2023-04-23T07:17:44.420Z,608.88
2023-04-23T07:20:13.217Z,619.40
2023-04-23T07:24:03.830Z,623.58
2023-04-23T07:26:08.861Z,649.40
2023-04-23T07:28:50.721Z,660.75
2023-04-23T07:31:21.072Z,795.75
2023-04-23T07:33:49.376Z,769.53
2023-04-23T07:36:17.800Z,700.50
2023-04-23T07:38:47.613Z,700.53
2023-04-23T07:41:16.092Z,706.13
2023-04-23T07:43:44.539Z,692.03
2023-04-23T07:46:20.675Z,688.97
2023-04-23T07:48:49.508Z,683.25
2023-04-23T07:51:18.432Z,680.92
2023-04-23T07:54:15.579Z,697.28
2023-04-23T07:56:43.946Z,701.83
2023-04-23T07:59:12.307Z,706.25
2023-04-23T08:01:42.016Z,720.80
2023-04-23T08:04:10.671Z,709.83
2023-04-23T08:06:39.203Z,683.35
2023-04-23T08:16:16.431Z,669.10
2023-04-23T09:15:53.392Z,532.20
2023-04-23T09:18:23.621Z,602.83
2023-04-23T09:20:52.445Z,581.38
2023-04-23T09:23:23.353Z,545.30
2023-04-23T09:25:52.717Z,567.67
2023-04-23T09:28:21.344Z,576.55
2023-04-23T09:30:50.635Z,600.88
2023-04-23T09:33:19.282Z,552.08
2023-04-23T09:35:50.532Z,532.75
2023-04-23T09:38:21.369Z,645.22
2023-04-23T09:40:50.226Z,512.00
2023-04-23T09:43:18.656Z,568.15
2023-04-23T09:45:50.305Z,568.38
2023-04-23T09:48:18.812Z,586.70
2023-04-23T09:50:48.519Z,499.63
2023-04-23T09:53:16.992Z,515.00
2023-04-23T09:55:46.834Z,582.60
2023-04-23T09:58:16.419Z,480.15
2023-04-23T10:00:44.945Z,462.27
2023-04-23T10:03:13.543Z,528.13
2023-04-23T10:08:16.321Z,460.27
2023-04-23T10:11:02.533Z,459.98
2023-04-23T10:13:38.517Z,458.13
2023-04-23T10:16:21.148Z,412.27
2023-04-23T10:18:58.251Z,457.30
2023-04-23T10:21:36.686Z,474.83
2023-04-23T10:24:16.564Z,460.55
2023-04-23T10:26:45.559Z,464.40
2023-04-23T10:29:16.635Z,433.45
2023-04-23T10:31:55.864Z,498.15
2023-04-23T10:34:26.809Z,519.28
2023-04-23T10:36:56.738Z,441.95
2023-04-23T10:39:30.434Z,498.27
2023-04-23T10:41:59.405Z,435.45
2023-04-23T10:44:56.518Z,437.85
2023-04-23T10:47:23.479Z,452.67
2023-04-23T10:49:53.164Z,488.05
2023-04-23T10:52:51.592Z,508.40
2023-04-23T10:55:22.683Z,526.25
2023-04-23T10:58:02.690Z,537.80
2023-04-23T11:00:51.025Z,489.77
2023-04-23T11:03:44.109Z,524.30
2023-04-23T11:06:16.388Z,422.13
2023-04-23T11:08:54.841Z,463.50
2023-04-23T11:11:44.071Z,481.85
2023-04-23T11:14:15.086Z,478.80
2023-04-23T11:16:43.765Z,425.80
2023-04-23T11:19:13.467Z,498.20
2023-04-23T11:22:02.986Z,519.35
2023-04-23T11:24:33.006Z,510.95
2023-04-23T11:27:19.811Z,508.05
2023-04-23T11:30:00.154Z,526.15
2023-04-23T11:33:03.993Z,480.60
2023-04-23T11:35:57.266Z,476.95
2023-04-23T11:38:35.816Z,430.02
2023-04-23T11:41:12.538Z,443.98
2023-04-23T11:44:29.395Z,423.23
2023-04-23T11:47:16.610Z,475.92
2023-04-23T11:49:50.849Z,436.77
2023-04-23T11:52:24.893Z,509.63
2023-04-23T11:54:57.637Z,492.42
2023-04-23T11:58:07.768Z,495.88
2023-04-23T12:00:41.179Z,476.15
2023-04-23T12:03:09.960Z,489.88
2023-04-23T12:05:42.453Z,480.77
2023-04-23T12:08:42.062Z,489.40
2023-04-23T12:11:21.129Z,481.75
2023-04-23T12:13:49.717Z,481.35
2023-04-23T12:16:19.465Z,497.90
2023-04-23T12:18:47.785Z,503.90
2023-04-23T12:21:18.166Z,522.70
2023-04-23T12:23:46.640Z,503.15
2023-04-23T12:26:17.022Z,522.17
2023-04-23T12:28:49.422Z,500.77
2023-04-23T12:31:22.939Z,493.90
2023-04-23T12:34:00.881Z,482.75
2023-04-23T12:36:45.716Z,483.48
2023-04-23T12:39:23.099Z,474.98
2023-04-23T12:41:53.217Z,506.70
2023-04-23T12:44:22.167Z,479.48
2023-04-23T12:46:59.098Z,501.67
2023-04-23T12:49:28.208Z,499.13
2023-04-23T12:52:00.927Z,509.20
2023-04-23T12:54:31.192Z,497.90
2023-04-23T12:57:02.608Z,534.28
2023-04-23T12:59:31.413Z,501.45
2023-04-23T13:02:04.865Z,589.17
2023-04-23T13:04:35.064Z,493.90
2023-04-23T13:07:03.730Z,537.20
2023-04-23T13:09:32.121Z,518.88
2023-04-23T13:12:02.470Z,475.50
2023-04-23T13:14:32.013Z,485.45
2023-04-23T13:17:01.957Z,471.27
2023-04-23T13:19:30.399Z,497.35
2023-04-23T13:21:58.843Z,544.17
2023-04-23T13:24:27.232Z,490.45
2023-04-23T13:26:56.229Z,528.50
2023-04-23T13:29:27.218Z,526.97
2023-04-23T13:31:55.816Z,478.85
2023-04-23T13:34:25.876Z,477.50
2023-04-23T13:36:54.975Z,488.63
2023-04-23T13:39:23.684Z,491.83
2023-04-23T13:42:06.268Z,459.30
2023-04-23T13:44:37.946Z,486.70
2023-04-23T13:47:06.440Z,489.92
2023-04-23T13:49:36.131Z,514.45
2023-04-23T13:52:06.926Z,469.90
2023-04-23T13:54:36.477Z,521.53
2023-04-23T13:57:05.278Z,518.40
2023-04-23T13:59:33.634Z,486.25
2023-04-23T14:02:02.138Z,454.58
2023-04-23T14:04:30.640Z,474.20
2023-04-23T14:07:00.535Z,413.55
2023-04-23T14:09:29.888Z,469.65
2023-04-23T14:11:58.526Z,462.35
2023-04-23T14:14:26.929Z,472.63
2023-04-23T14:16:55.300Z,435.38
2023-04-23T14:19:23.886Z,450.35
2023-04-23T14:21:52.247Z,448.52
2023-04-23T14:24:28.833Z,450.65
2023-04-23T14:26:57.121Z,409.20
2023-04-23T14:29:30.739Z,464.88
2023-04-23T14:31:59.285Z,404.65
2023-04-23T14:34:28.016Z,423.65
2023-04-23T14:36:56.382Z,480.80
2023-04-23T14:39:26.899Z,413.60
2023-04-23T14:41:55.340Z,498.67
2023-04-23T14:44:26.391Z,479.67
2023-04-23T14:46:54.844Z,445.38
2023-04-23T14:49:24.170Z,484.08
2023-04-23T14:51:58.477Z,452.25
2023-04-23T14:56:56.784Z,628.88
2023-04-23T14:59:25.633Z,703.75
2023-04-23T15:01:54.238Z,692.40
2023-04-23T15:04:22.804Z,706.97
2023-04-23T15:06:51.398Z,676.20
2023-04-23T15:09:20.517Z,698.88
2023-04-23T15:11:52.040Z,661.35
2023-04-23T15:14:21.781Z,689.13
2023-04-23T15:16:50.589Z,623.60
2023-04-23T15:20:17.417Z,734.58
2023-04-23T15:22:56.530Z,732.90
2023-04-23T15:25:25.345Z,781.05
2023-04-23T15:27:57.959Z,739.15
2023-04-23T15:31:06.358Z,755.38
2023-04-23T15:34:06.698Z,704.40
2023-04-23T15:36:44.044Z,691.28
2023-04-23T15:39:27.625Z,659.33
2023-04-23T15:42:27.925Z,677.25
2023-04-23T15:49:26.756Z,639.97
2023-04-23T15:51:55.712Z,700.90
2023-04-23T15:54:24.887Z,667.40
2023-04-23T15:56:58.675Z,691.58
2023-04-23T15:59:27.442Z,658.58
2023-04-23T16:03:04.390Z,685.17
2023-04-23T16:05:54.430Z,765.20
2023-04-23T16:08:49.610Z,650.78
2023-04-23T16:11:36.514Z,653.90
2023-04-23T16:14:05.978Z,659.17
2023-04-23T16:20:04.937Z,694.97
2023-04-23T16:22:46.827Z,664.67
2023-04-23T16:25:21.063Z,642.05
2023-04-23T16:31:27.429Z,647.15
2023-04-23T16:34:12.417Z,685.08
2023-04-23T16:40:17.469Z,645.53
2023-04-23T16:43:12.823Z,622.20
2023-04-23T16:48:43.883Z,588.60
2023-04-23T16:51:12.594Z,589.95
2023-04-23T18:08:58.572Z,684.90
2023-04-23T18:11:31.084Z,694.53
2023-04-23T18:14:02.756Z,680.20
2023-04-23T18:16:31.592Z,667.42
2023-04-23T18:19:01.233Z,665.65
2023-04-23T18:21:30.046Z,672.35
2023-04-23T18:24:00.476Z,794.63
2023-04-23T18:26:29.314Z,677.53
2023-04-23T18:28:57.994Z,706.83
2023-04-23T18:31:36.745Z,752.95
2023-04-23T18:34:24.044Z,703.60
2023-04-23T18:37:07.999Z,700.67
2023-04-23T18:39:47.749Z,686.53
2023-04-23T18:42:18.326Z,688.72
2023-04-23T18:45:03.879Z,695.55
2023-04-23T18:47:52.382Z,706.45
2023-04-23T18:50:47.574Z,702.97
2023-04-23T18:56:05.514Z,684.15
2023-04-23T18:58:46.042Z,699.95
2023-04-23T19:01:28.552Z,690.58
2023-04-23T19:03:59.940Z,698.58
2023-04-23T19:06:51.861Z,695.60
2023-04-23T19:38:04.684Z,673.10
2023-04-23T19:40:33.405Z,703.45
2023-04-23T19:43:02.144Z,665.60
2023-04-23T19:45:32.317Z,676.67
2023-04-23T19:48:07.046Z,725.58
2023-04-23T19:50:39.458Z,679.38
2023-04-23T19:53:09.469Z,673.33
2023-04-23T19:55:37.821Z,665.17
2023-04-23T19:58:07.110Z,670.75
2023-04-23T20:00:40.008Z,677.92
2023-04-23T20:03:09.542Z,661.17
2023-04-23T20:05:38.155Z,684.47
2023-04-23T20:08:14.986Z,669.70
2023-04-23T20:10:43.523Z,673.83
2023-04-23T20:13:11.957Z,679.38
2023-04-23T20:15:40.339Z,667.00
2023-04-23T20:18:08.999Z,670.67
2023-04-23T20:20:39.128Z,684.45
2023-04-23T20:23:08.890Z,670.25
2023-04-23T20:25:37.401Z,671.33
2023-04-23T20:28:05.788Z,668.15
2023-04-23T20:30:34.694Z,674.20
2023-04-23T20:33:03.351Z,667.05
2023-04-23T20:35:31.895Z,675.67
2023-04-23T20:38:00.852Z,669.78
2023-04-23T20:40:34.349Z,675.17
2023-04-23T20:43:04.488Z,656.03
2023-04-23T20:45:34.502Z,674.85
2023-04-23T20:48:03.608Z,674.92
2023-04-23T20:50:32.282Z,655.35
2023-04-23T20:53:00.652Z,658.70
2023-04-23T20:55:30.337Z,680.08
2023-04-23T20:57:58.674Z,667.17
2023-04-23T21:00:27.896Z,668.50
2023-04-23T21:02:56.479Z,664.72
2023-04-23T21:05:24.906Z,698.10
2023-04-23T21:07:53.329Z,656.38
2023-04-23T21:10:21.915Z,647.97
2023-04-23T21:12:51.819Z,642.03
2023-04-23T21:15:20.178Z,645.40
2023-04-23T21:17:48.652Z,650.13
2023-04-23T21:20:17.036Z,645.53
2023-04-23T21:22:45.380Z,657.17
2023-04-23T21:25:13.730Z,647.63
2023-04-23T21:27:47.262Z,672.17
2023-04-23T21:30:23.799Z,680.28
2023-04-23T21:32:52.798Z,643.88
2023-04-23T21:35:21.198Z,662.60
2023-04-23T21:37:49.611Z,662.83
2023-04-23T21:40:17.987Z,667.20
2023-04-23T21:42:47.510Z,673.70
2023-04-23T21:45:17.438Z,661.45
2023-04-23T21:47:45.916Z,666.47
2023-04-23T21:50:17.361Z,681.42
2023-04-23T21:52:46.105Z,669.78
2023-04-23T21:55:14.602Z,681.17
2023-04-23T21:57:42.934Z,651.15
2023-04-23T22:00:13.884Z,677.63
2023-04-23T22:02:46.496Z,661.55
2023-04-23T22:05:16.965Z,671.25
2023-04-23T22:07:45.345Z,664.28
2023-04-23T22:10:15.261Z,662.55
2023-04-23T22:12:44.240Z,663.83
2023-04-23T22:15:16.006Z,646.92
2023-04-23T22:17:50.168Z,677.65
2023-04-23T22:20:19.480Z,660.15
2023-04-23T22:22:48.116Z,666.55
2023-04-23T22:25:17.388Z,655.03
2023-04-23T22:27:45.773Z,655.20
2023-04-23T22:30:14.444Z,671.28
2023-04-23T22:32:42.885Z,680.88
2023-04-23T22:35:12.931Z,669.22
2023-04-23T22:37:41.460Z,670.05
2023-04-23T22:40:11.053Z,677.35
2023-04-23T22:42:39.472Z,673.13
2023-04-23T22:45:08.674Z,685.13
2023-04-23T22:47:37.524Z,661.97
2023-04-23T22:50:07.733Z,682.50
2023-04-23T22:52:37.793Z,668.85
2023-04-23T22:55:07.408Z,649.67
2023-04-23T22:57:36.127Z,666.97
2023-04-23T23:00:07.548Z,660.45
2023-04-23T23:02:36.074Z,681.30
2023-04-23T23:05:04.675Z,647.40
2023-04-23T23:07:33.010Z,644.15
2023-04-23T23:10:03.696Z,659.05
2023-04-23T23:12:32.092Z,672.42
2023-04-23T23:15:02.118Z,661.20
2023-04-23T23:17:30.507Z,647.33
2023-04-23T23:19:58.916Z,640.05
2023-04-23T23:22:27.842Z,678.67
2023-04-23T23:24:56.327Z,644.70
2023-04-23T23:27:26.035Z,648.30
2023-04-23T23:29:54.394Z,644.22
2023-04-23T23:32:22.725Z,669.30
2023-04-23T23:34:51.550Z,670.40
2023-04-23T23:37:19.904Z,668.80
2023-04-23T23:39:48.235Z,655.13
2023-04-23T23:42:16.555Z,648.28
2023-04-23T23:44:46.477Z,635.53
2023-04-23T23:47:14.921Z,633.17
2023-04-23T23:49:43.544Z,642.42
2023-04-23T23:52:12.029Z,641.60
2023-04-23T23:54:40.381Z,637.38
2023-04-23T23:57:08.822Z,652.40
2023-04-23T23:59:37.194Z,647.53
